createdAt,value
2022-10-26T00:02:24.427Z,428.60
2022-10-26T00:05:12.319Z,428.58
2022-10-26T00:08:00.234Z,458.13
2022-10-26T00:10:48.111Z,439.20
2022-10-26T00:13:38.769Z,437.73
2022-10-26T00:16:28.499Z,429.90
2022-10-26T00:19:16.452Z,409.90
2022-10-26T00:22:04.629Z,423.92
2022-10-26T00:24:52.551Z,423.45
2022-10-26T00:27:40.596Z,414.02
2022-10-26T00:30:29.901Z,411.90
2022-10-26T00:33:18.058Z,404.30
2022-10-26T00:36:06.315Z,433.38
2022-10-26T00:38:55.681Z,421.30
2022-10-26T00:41:43.590Z,428.85
2022-10-26T00:44:57.623Z,426.17
2022-10-26T00:47:50.039Z,413.73
2022-10-26T00:50:42.309Z,423.15
2022-10-26T00:53:31.105Z,416.65
2022-10-26T00:56:19.776Z,435.17
2022-10-26T00:59:10.196Z,440.33
2022-10-26T01:01:58.358Z,430.50
2022-10-26T01:04:48.626Z,439.17
2022-10-26T01:07:37.649Z,463.55
2022-10-26T01:10:26.788Z,438.85
2022-10-26T01:13:16.589Z,430.20
2022-10-26T01:16:17.111Z,444.63
2022-10-26T01:19:34.563Z,447.02
2022-10-26T01:22:27.611Z,424.90
2022-10-26T01:25:33.023Z,429.05
2022-10-26T01:28:34.113Z,441.08
2022-10-26T01:31:31.339Z,436.02
2022-10-26T01:34:23.853Z,425.15
2022-10-26T01:37:14.809Z,421.38
2022-10-26T01:40:10.732Z,435.80
2022-10-26T01:43:03.459Z,422.70
2022-10-26T01:45:53.325Z,430.75
2022-10-26T01:48:44.178Z,438.05
2022-10-26T01:51:33.052Z,433.63
2022-10-26T01:54:20.993Z,435.52
2022-10-26T01:57:12.302Z,438.40
2022-10-26T02:00:10.343Z,441.05
2022-10-26T02:03:05.380Z,440.33
2022-10-26T02:06:04.072Z,453.90
2022-10-26T02:08:59.211Z,434.00
2022-10-26T02:11:50.358Z,431.92
2022-10-26T02:14:48.513Z,425.42
2022-10-26T02:17:47.044Z,447.00
2022-10-26T02:20:40.191Z,449.25
2022-10-26T02:23:31.320Z,433.45
2022-10-26T02:26:23.342Z,445.13
2022-10-26T02:29:16.457Z,438.45
2022-10-26T02:32:05.911Z,424.60
2022-10-26T02:34:56.542Z,419.33
2022-10-26T02:37:47.587Z,402.77
2022-10-26T02:40:38.548Z,423.85
2022-10-26T02:43:29.116Z,367.55
2022-10-26T02:46:21.541Z,406.00
2022-10-26T02:49:09.607Z,423.20
2022-10-26T02:52:05.578Z,409.77
2022-10-26T02:55:00.284Z,410.42
2022-10-26T02:57:54.916Z,394.52
2022-10-26T03:00:43.639Z,410.48
2022-10-26T03:03:31.710Z,419.70
2022-10-26T03:06:23.821Z,389.80
2022-10-26T03:09:11.816Z,440.98
2022-10-26T03:11:59.793Z,412.52
2022-10-26T03:14:48.981Z,428.75
2022-10-26T03:17:36.892Z,446.42
2022-10-26T03:20:24.840Z,435.38
2022-10-26T03:23:12.817Z,426.90
2022-10-26T03:26:01.276Z,435.02
2022-10-26T03:28:49.142Z,438.45
2022-10-26T03:31:38.373Z,438.17
2022-10-26T03:34:26.442Z,422.65
2022-10-26T03:37:14.422Z,416.25
2022-10-26T03:40:02.326Z,463.98
2022-10-26T03:42:50.489Z,432.25
2022-10-26T03:45:38.586Z,436.67
2022-10-26T03:48:27.985Z,446.50
2022-10-26T03:51:15.884Z,440.17
2022-10-26T03:54:03.853Z,431.10
2022-10-26T03:56:55.105Z,450.88
2022-10-26T03:59:43.338Z,459.33
2022-10-26T04:02:31.217Z,424.63
2022-10-26T04:05:20.516Z,417.17
2022-10-26T04:08:09.672Z,418.80
2022-10-26T04:10:59.929Z,439.17
2022-10-26T04:13:50.314Z,420.80
2022-10-26T04:16:38.298Z,460.80
2022-10-26T04:19:26.206Z,439.13
2022-10-26T04:22:15.589Z,433.52
2022-10-26T04:25:03.516Z,435.73
2022-10-26T04:27:51.661Z,421.65
2022-10-26T04:30:40.633Z,415.90
2022-10-26T04:33:28.597Z,415.55
2022-10-26T04:36:16.558Z,441.08
2022-10-26T04:39:06.037Z,421.40
2022-10-26T04:41:55.159Z,408.70
2022-10-26T04:44:43.140Z,370.88
2022-10-26T04:47:31.001Z,393.50
2022-10-26T04:50:18.972Z,384.90
2022-10-26T04:53:07.654Z,397.00
2022-10-26T04:56:00.915Z,383.77
2022-10-26T04:58:48.831Z,407.27
2022-10-26T05:01:36.768Z,366.50
2022-10-26T05:04:24.837Z,413.65
2022-10-26T05:07:12.715Z,373.48
2022-10-26T05:10:00.641Z,383.80
2022-10-26T05:12:52.909Z,372.17
2022-10-26T05:15:40.862Z,394.98
2022-10-26T05:18:28.779Z,356.67
2022-10-26T05:21:19.483Z,403.30
2022-10-26T05:24:10.193Z,365.50
2022-10-26T05:27:00.810Z,396.90
2022-10-26T05:29:50.062Z,389.65
2022-10-26T05:32:37.917Z,387.35
2022-10-26T05:35:27.113Z,384.40
2022-10-26T05:38:16.878Z,419.80
2022-10-26T05:41:04.924Z,411.70
2022-10-26T05:43:52.930Z,432.70
2022-10-26T05:46:42.231Z,431.75
2022-10-26T05:49:30.140Z,434.15
2022-10-26T05:52:18.038Z,440.08
2022-10-26T05:58:00.489Z,433.27
2022-10-26T06:01:00.757Z,417.52
2022-10-26T06:04:03.995Z,457.35
2022-10-26T06:06:39.809Z,440.25
2022-10-26T06:09:10.485Z,448.27
2022-10-26T06:11:38.758Z,428.30
2022-10-26T06:14:07.556Z,449.65
2022-10-26T06:16:46.361Z,435.50
2022-10-26T06:19:28.013Z,456.13
2022-10-26T06:22:05.457Z,419.50
2022-10-26T06:24:40.113Z,445.85
2022-10-26T06:27:20.467Z,495.77
2022-10-26T06:29:56.812Z,496.40
2022-10-26T06:32:25.415Z,482.85
2022-10-26T06:35:04.858Z,488.77
2022-10-26T06:37:36.757Z,499.55
2022-10-26T06:40:06.306Z,486.65
2022-10-26T06:42:34.419Z,477.27
2022-10-26T06:45:02.628Z,513.95
2022-10-26T06:47:39.086Z,509.90
2022-10-26T06:50:20.325Z,511.20
2022-10-26T06:52:56.399Z,540.03
2022-10-26T06:55:26.713Z,484.75
2022-10-26T06:57:54.514Z,538.50
2022-10-26T07:00:25.094Z,515.97
2022-10-26T07:02:53.395Z,530.67
2022-10-26T07:05:22.798Z,528.83
2022-10-26T07:07:50.692Z,533.83
2022-10-26T07:10:18.452Z,513.30
2022-10-26T07:12:46.200Z,503.88
2022-10-26T07:15:13.825Z,506.23
2022-10-26T07:17:45.892Z,499.55
2022-10-26T07:20:14.421Z,513.85
2022-10-26T07:22:43.750Z,520.50
2022-10-26T07:25:12.259Z,530.67
2022-10-26T07:27:40.185Z,510.77
2022-10-26T07:30:08.862Z,543.42
2022-10-26T07:32:36.618Z,532.90
2022-10-26T07:35:04.450Z,538.80
2022-10-26T07:37:32.212Z,544.72
2022-10-26T07:40:05.680Z,541.58
2022-10-26T07:42:36.416Z,507.25
2022-10-26T07:45:05.194Z,559.05
2022-10-26T07:47:32.913Z,532.85
2022-10-26T07:50:00.536Z,535.85
2022-10-26T07:52:28.135Z,540.03
2022-10-26T07:54:55.735Z,501.88
2022-10-26T07:57:24.699Z,539.65
2022-10-26T07:59:52.484Z,514.72
2022-10-26T08:02:20.781Z,537.53
2022-10-26T08:04:48.390Z,534.70
2022-10-26T08:07:16.019Z,525.35
2022-10-26T08:09:43.666Z,516.47
2022-10-26T08:12:13.477Z,536.50
2022-10-26T08:14:42.583Z,534.78
2022-10-26T08:17:10.664Z,533.70
2022-10-26T08:19:38.547Z,531.33
2022-10-26T08:22:06.432Z,530.83
2022-10-26T08:24:34.113Z,543.72
2022-10-26T08:27:01.747Z,512.35
2022-10-26T08:29:29.504Z,524.65
2022-10-26T08:31:58.691Z,560.65
2022-10-26T08:34:26.343Z,535.50
2022-10-26T08:36:53.960Z,546.75
2022-10-26T08:39:21.846Z,516.78
2022-10-26T08:41:53.414Z,569.67
2022-10-26T08:44:26.866Z,541.72
2022-10-26T08:46:59.476Z,550.70
2022-10-26T08:49:31.425Z,538.38
2022-10-26T08:52:02.209Z,549.42
2022-10-26T08:54:36.628Z,531.28
2022-10-26T08:57:12.900Z,562.30
2022-10-26T08:59:47.834Z,541.45
2022-10-26T09:02:18.560Z,533.03
2022-10-26T09:04:46.483Z,560.47
2022-10-26T09:07:25.837Z,552.20
2022-10-26T09:10:01.667Z,546.10
2022-10-26T09:12:38.726Z,559.42
2022-10-26T09:15:15.939Z,554.85
2022-10-26T09:17:52.198Z,546.72
2022-10-26T09:20:40.617Z,552.28
2022-10-26T09:23:19.746Z,542.70
2022-10-26T09:25:52.642Z,544.97
2022-10-26T09:28:20.626Z,550.88
2022-10-26T09:30:49.394Z,533.83
2022-10-26T09:33:21.492Z,546.20
2022-10-26T09:35:52.756Z,552.47
2022-10-26T09:38:26.220Z,552.70
2022-10-26T09:40:58.849Z,535.05
2022-10-26T09:43:32.826Z,529.72
2022-10-26T09:46:00.461Z,551.38
2022-10-26T09:48:37.945Z,555.53
2022-10-26T09:51:05.942Z,554.30
2022-10-26T09:53:34.070Z,556.20
2022-10-26T09:56:06.505Z,534.78
2022-10-26T09:58:38.331Z,555.15
2022-10-26T10:01:06.161Z,574.00
2022-10-26T10:03:35.132Z,537.58
2022-10-26T10:06:17.666Z,568.85
2022-10-26T10:08:46.531Z,577.85
2022-10-26T10:11:15.775Z,565.88
2022-10-26T10:13:45.649Z,562.38
2022-10-26T10:16:21.385Z,561.67
2022-10-26T10:18:56.852Z,577.75
2022-10-26T10:21:35.599Z,534.40
2022-10-26T10:24:03.256Z,552.15
2022-10-26T10:26:30.878Z,565.67
2022-10-26T10:28:59.738Z,591.38
2022-10-26T10:31:31.856Z,573.95
2022-10-26T10:34:01.227Z,565.90
2022-10-26T10:36:31.649Z,560.00
2022-10-26T10:39:00.257Z,550.35
2022-10-26T10:41:30.311Z,564.33
2022-10-26T10:44:06.759Z,566.22
2022-10-26T10:46:34.708Z,572.78
2022-10-26T10:49:05.880Z,568.88
2022-10-26T10:51:39.519Z,556.60
2022-10-26T10:54:21.789Z,561.67
2022-10-26T10:56:53.355Z,573.47
2022-10-26T10:59:39.487Z,569.80
2022-10-26T11:02:32.280Z,560.53
2022-10-26T11:05:20.855Z,589.50
2022-10-26T11:07:57.136Z,559.17
2022-10-26T11:10:30.739Z,566.83
2022-10-26T11:13:01.828Z,579.85
2022-10-26T11:15:33.805Z,562.22
2022-10-26T11:18:07.394Z,593.15
2022-10-26T11:20:40.646Z,565.65
2022-10-26T11:23:13.228Z,584.50
2022-10-26T11:25:49.120Z,587.17
2022-10-26T11:28:21.262Z,599.95
2022-10-26T11:30:56.404Z,561.17
2022-10-26T11:33:30.345Z,570.53
2022-10-26T11:36:04.109Z,579.08
2022-10-26T11:38:46.255Z,566.58
2022-10-26T11:41:30.813Z,570.05
2022-10-26T11:44:06.781Z,590.28
2022-10-26T11:46:38.969Z,577.28
2022-10-26T11:49:12.781Z,575.85
2022-10-26T11:51:45.772Z,556.63
2022-10-26T11:54:18.001Z,571.08
2022-10-26T11:56:49.484Z,581.33
2022-10-26T11:59:21.109Z,554.97
2022-10-26T12:01:51.116Z,569.92
2022-10-26T12:04:22.496Z,561.88
2022-10-26T12:06:53.724Z,543.40
2022-10-26T12:09:24.927Z,605.45
2022-10-26T12:11:58.819Z,584.90
2022-10-26T12:14:35.088Z,563.70
2022-10-26T12:17:11.141Z,552.85
2022-10-26T12:19:48.860Z,575.35
2022-10-26T12:22:19.930Z,548.45
2022-10-26T12:25:05.426Z,580.72
2022-10-26T12:27:50.209Z,564.85
2022-10-26T12:30:27.898Z,573.88
2022-10-26T12:32:56.881Z,581.53
2022-10-26T12:35:39.240Z,565.28
2022-10-26T12:38:49.712Z,567.95
2022-10-26T12:41:24.100Z,537.90
2022-10-26T12:43:55.835Z,564.53
2022-10-26T12:46:39.340Z,569.67
2022-10-26T12:49:48.172Z,563.88
2022-10-26T12:52:26.831Z,543.97
2022-10-26T12:55:14.512Z,560.47
2022-10-26T12:57:54.110Z,512.80
2022-10-26T13:00:25.324Z,535.95
2022-10-26T13:03:08.867Z,529.40
2022-10-26T13:06:02.543Z,549.10
2022-10-26T13:08:41.168Z,520.38
2022-10-26T13:11:17.315Z,509.10
2022-10-26T13:13:53.263Z,518.45
2022-10-26T13:16:21.136Z,525.90
2022-10-26T13:18:49.407Z,529.20
2022-10-26T13:21:18.580Z,527.65
2022-10-26T13:23:48.450Z,522.20
2022-10-26T13:26:17.882Z,532.75
2022-10-26T13:28:50.090Z,521.75
2022-10-26T13:31:58.309Z,567.58
2022-10-26T13:34:29.243Z,529.83
2022-10-26T13:37:06.139Z,520.22
2022-10-26T13:39:38.308Z,533.22
2022-10-26T13:42:08.112Z,521.58
2022-10-26T13:44:45.705Z,568.60
2022-10-26T13:47:17.569Z,548.00
2022-10-26T13:49:48.742Z,514.55
2022-10-26T13:52:21.190Z,531.65
2022-10-26T13:54:52.334Z,517.90
2022-10-26T13:57:23.903Z,504.48
2022-10-26T13:59:53.655Z,524.55
2022-10-26T14:02:46.379Z,513.72
2022-10-26T14:05:16.879Z,538.83
2022-10-26T14:07:50.460Z,502.25
2022-10-26T14:10:27.807Z,524.22
2022-10-26T14:12:55.505Z,498.83
2022-10-26T14:15:28.573Z,522.13
2022-10-26T14:17:56.860Z,499.75
2022-10-26T14:20:26.719Z,499.42
2022-10-26T14:22:54.502Z,504.25
2022-10-26T14:25:35.789Z,485.80
2022-10-26T14:28:23.075Z,494.15
2022-10-26T14:30:52.481Z,473.42
2022-10-26T14:33:21.498Z,525.63
2022-10-26T14:35:49.775Z,502.75
2022-10-26T14:38:22.404Z,526.05
2022-10-26T14:40:51.913Z,496.67
2022-10-26T14:43:23.223Z,504.08
2022-10-26T14:45:54.652Z,518.92
2022-10-26T14:48:26.171Z,492.45
2022-10-26T14:51:04.889Z,508.60
2022-10-26T14:53:38.818Z,515.90
2022-10-26T14:56:17.813Z,515.38
2022-10-26T14:58:45.429Z,523.22
2022-10-26T15:01:31.574Z,518.85
2022-10-26T15:04:03.432Z,490.55
2022-10-26T15:06:42.485Z,516.28
2022-10-26T15:09:43.453Z,501.95
2022-10-26T15:12:24.103Z,517.63
2022-10-26T15:14:52.366Z,511.45
2022-10-26T15:17:27.497Z,517.35
2022-10-26T15:19:56.320Z,529.33
2022-10-26T15:22:30.925Z,516.30
2022-10-26T15:25:01.721Z,526.25
2022-10-26T15:27:29.412Z,544.28
2022-10-26T15:30:15.873Z,541.45
2022-10-26T15:32:44.878Z,529.47
2022-10-26T15:35:31.929Z,544.72
2022-10-26T15:38:00.987Z,532.13
2022-10-26T15:40:31.835Z,530.50
2022-10-26T15:43:01.699Z,528.03
2022-10-26T15:45:33.040Z,519.45
2022-10-26T15:48:19.386Z,538.03
2022-10-26T15:50:47.000Z,541.20
2022-10-26T15:53:19.525Z,541.00
2022-10-26T15:55:47.459Z,532.45
2022-10-26T15:58:16.222Z,564.70
2022-10-26T16:00:44.095Z,554.17
2022-10-26T16:03:17.023Z,568.75
2022-10-26T16:05:44.697Z,564.97
2022-10-26T16:08:17.770Z,580.63
2022-10-26T16:10:46.892Z,567.63
2022-10-26T16:13:15.245Z,561.67
2022-10-26T16:15:43.235Z,588.85
2022-10-26T16:18:10.928Z,584.75
2022-10-26T16:20:40.227Z,570.22
2022-10-26T16:23:07.911Z,585.40
2022-10-26T16:25:41.228Z,590.97
2022-10-26T16:28:10.565Z,565.13
2022-10-26T16:30:38.249Z,572.17
2022-10-26T16:33:05.912Z,577.92
2022-10-26T16:35:33.690Z,597.88
2022-10-26T16:38:02.741Z,582.55
2022-10-26T16:40:30.370Z,599.25
2022-10-26T16:42:57.987Z,588.33
2022-10-26T16:45:25.632Z,575.70
2022-10-26T16:47:53.594Z,607.85
2022-10-26T16:50:22.129Z,587.90
2022-10-26T16:52:49.808Z,576.28
2022-10-26T16:55:18.915Z,586.97
2022-10-26T16:57:46.620Z,559.22
2022-10-26T17:00:14.715Z,553.28
2022-10-26T17:02:42.449Z,547.00
2022-10-26T17:05:10.362Z,553.90
2022-10-26T17:07:37.982Z,521.58
2022-10-26T17:10:06.378Z,513.25
2022-10-26T17:12:35.416Z,515.30
2022-10-26T17:15:03.063Z,525.28
2022-10-26T17:17:30.836Z,530.95
2022-10-26T17:19:58.837Z,499.92
2022-10-26T17:22:26.526Z,530.75
2022-10-26T17:24:54.231Z,525.90
2022-10-26T17:27:22.984Z,526.38
2022-10-26T17:29:51.922Z,525.25
2022-10-26T17:32:19.576Z,512.47
2022-10-26T17:34:47.259Z,514.45
2022-10-26T17:37:14.987Z,517.58
2022-10-26T17:39:42.662Z,505.00
2022-10-26T17:42:10.300Z,505.15
2022-10-26T17:44:38.980Z,526.50
2022-10-26T17:47:08.729Z,545.00
2022-10-26T17:49:36.559Z,560.28
2022-10-26T17:52:05.841Z,542.33
2022-10-26T17:54:33.582Z,516.78
2022-10-26T17:57:01.994Z,523.88
2022-10-26T17:59:29.848Z,541.70
2022-10-26T18:01:57.650Z,526.83
2022-10-26T18:04:26.705Z,567.25
2022-10-26T18:06:54.407Z,543.53
2022-10-26T18:09:22.426Z,555.67
2022-10-26T18:11:52.148Z,564.40
2022-10-26T18:14:22.650Z,553.72
2022-10-26T18:16:50.335Z,559.42
2022-10-26T18:19:17.972Z,546.60
2022-10-26T18:21:46.928Z,575.17
2022-10-26T18:24:14.544Z,572.72
2022-10-26T18:26:42.265Z,548.65
2022-10-26T18:29:12.208Z,556.22
2022-10-26T18:31:39.869Z,539.40
2022-10-26T18:34:07.661Z,527.03
2022-10-26T18:36:35.375Z,515.55
2022-10-26T18:39:04.837Z,521.35
2022-10-26T18:41:32.499Z,541.25
2022-10-26T18:44:01.532Z,531.63
2022-10-26T18:46:30.964Z,523.45
2022-10-26T18:49:00.611Z,502.35
2022-10-26T18:51:32.350Z,496.25
2022-10-26T18:54:00.920Z,516.45
2022-10-26T18:56:30.041Z,511.45
2022-10-26T18:58:59.684Z,493.08
2022-10-26T19:01:29.793Z,476.35
2022-10-26T19:03:59.249Z,474.60
2022-10-26T19:06:29.807Z,487.73
2022-10-26T19:08:58.139Z,485.70
2022-10-26T19:11:27.748Z,500.45
2022-10-26T19:13:57.509Z,502.00
2022-10-26T19:16:45.060Z,461.73
2022-10-26T19:19:14.605Z,488.92
2022-10-26T19:21:42.352Z,482.55
2022-10-26T19:24:13.898Z,486.73
2022-10-26T19:26:43.695Z,471.50
2022-10-26T19:29:15.144Z,451.48
2022-10-26T19:31:44.231Z,478.63
2022-10-26T19:34:13.289Z,475.08
2022-10-26T19:36:44.486Z,444.67
2022-10-26T19:39:12.941Z,448.25
2022-10-26T19:41:40.660Z,420.80
2022-10-26T19:44:08.387Z,441.27
2022-10-26T19:46:38.012Z,437.60
2022-10-26T19:49:05.662Z,421.95
2022-10-26T19:51:33.760Z,447.73
2022-10-26T19:54:03.876Z,433.92
2022-10-26T19:56:32.114Z,415.40
2022-10-26T19:58:59.864Z,430.15
2022-10-26T20:01:27.584Z,457.33
2022-10-26T20:04:15.245Z,405.85
2022-10-26T20:07:03.133Z,404.95
2022-10-26T20:09:51.163Z,404.88
2022-10-26T20:12:39.064Z,404.17
2022-10-26T20:15:26.986Z,415.15
2022-10-26T20:18:15.286Z,402.02
2022-10-26T20:21:07.658Z,424.35
2022-10-26T20:23:55.554Z,416.63
2022-10-26T20:26:43.468Z,399.63
2022-10-26T20:29:31.394Z,384.88
2022-10-26T20:32:19.512Z,416.65
2022-10-26T20:35:08.098Z,374.42
2022-10-26T20:37:57.951Z,385.23
2022-10-26T20:40:51.135Z,374.52
2022-10-26T20:43:40.500Z,387.63
2022-10-26T20:46:29.064Z,379.95
2022-10-26T20:49:17.433Z,365.38
2022-10-26T20:52:20.710Z,398.17
2022-10-26T20:55:22.608Z,402.85
2022-10-26T20:58:14.535Z,375.90
2022-10-26T21:01:04.849Z,386.88
2022-10-26T21:03:53.176Z,399.85
2022-10-26T21:06:41.046Z,413.02
2022-10-26T21:09:31.776Z,393.05
2022-10-26T21:12:24.913Z,407.10
2022-10-26T21:15:12.867Z,418.58
2022-10-26T21:18:00.858Z,404.50
2022-10-26T21:20:48.755Z,396.95
2022-10-26T21:23:39.250Z,400.13
2022-10-26T21:26:27.113Z,433.58
2022-10-26T21:29:16.512Z,419.83
2022-10-26T21:32:04.758Z,398.38
2022-10-26T21:34:52.756Z,412.42
2022-10-26T21:37:40.882Z,371.02
2022-10-26T21:40:28.928Z,389.17
2022-10-26T21:43:18.952Z,387.75
2022-10-26T21:46:09.827Z,407.98
2022-10-26T21:48:57.868Z,401.45
2022-10-26T21:51:46.058Z,382.70
2022-10-26T21:54:34.072Z,386.65
2022-10-26T21:57:22.088Z,403.70
2022-10-26T22:00:10.901Z,400.25
2022-10-26T22:03:02.595Z,402.35
2022-10-26T22:05:52.897Z,398.02
2022-10-26T22:08:41.447Z,388.73
2022-10-26T22:11:29.548Z,402.02
2022-10-26T22:14:18.921Z,388.83
2022-10-26T22:17:07.086Z,403.48
2022-10-26T22:19:56.464Z,383.42
2022-10-26T22:22:44.739Z,360.08
2022-10-26T22:25:33.244Z,395.08
2022-10-26T22:28:21.160Z,394.15
2022-10-26T22:31:11.016Z,376.58
2022-10-26T22:34:04.811Z,392.27
2022-10-26T22:36:56.769Z,391.70
2022-10-26T22:39:44.710Z,398.92
2022-10-26T22:42:32.633Z,398.98
2022-10-26T22:45:20.551Z,410.20
2022-10-26T22:51:06.633Z,383.45
2022-10-26T22:53:57.926Z,388.70
2022-10-26T22:56:45.796Z,372.63
2022-10-26T22:59:33.706Z,408.20
2022-10-26T23:02:21.624Z,370.05
2022-10-26T23:05:09.968Z,378.77
2022-10-26T23:07:58.162Z,388.58
2022-10-26T23:10:47.473Z,363.10
2022-10-26T23:13:35.369Z,376.23
2022-10-26T23:16:23.522Z,381.30
2022-10-26T23:19:11.489Z,371.33
2022-10-26T23:21:59.413Z,384.42
2022-10-26T23:24:47.297Z,400.00
2022-10-26T23:27:36.517Z,394.67
2022-10-26T23:30:24.392Z,401.50
2022-10-26T23:33:12.304Z,386.08
2022-10-26T23:36:01.169Z,370.92
2022-10-26T23:38:49.422Z,371.38
2022-10-26T23:41:37.321Z,366.65
2022-10-26T23:44:26.626Z,351.25
2022-10-26T23:47:14.526Z,399.50
2022-10-26T23:50:02.476Z,384.20
2022-10-26T23:52:50.645Z,385.75
2022-10-26T23:55:38.837Z,392.92
2022-10-26T23:58:26.767Z,393.05
